createdAt,value
2022-10-09T00:00:44.408Z,27.20
2022-10-09T00:03:17.843Z,27.20
2022-10-09T00:05:48.773Z,27.20
2022-10-09T00:08:19.271Z,27.20
2022-10-09T00:10:50.863Z,27.30
2022-10-09T00:13:21.550Z,27.30
2022-10-09T00:15:52.354Z,27.30
2022-10-09T00:18:22.971Z,27.30
2022-10-09T00:20:53.605Z,27.30
2022-10-09T00:23:24.337Z,27.40
2022-10-09T00:25:57.634Z,27.40
2022-10-09T00:28:33.286Z,27.40
2022-10-09T00:31:04.175Z,27.40
2022-10-09T00:33:35.920Z,27.40
2022-10-09T00:36:08.689Z,27.50
2022-10-09T00:38:39.716Z,27.50
2022-10-09T00:41:11.242Z,27.50
2022-10-09T00:43:44.373Z,27.50
2022-10-09T00:46:17.584Z,27.50
2022-10-09T00:48:49.854Z,27.50
2022-10-09T00:51:20.614Z,27.60
2022-10-09T00:53:51.273Z,27.60
2022-10-09T00:56:22.290Z,27.60
2022-10-09T00:58:55.769Z,27.70
2022-10-09T01:01:26.572Z,27.70
2022-10-09T01:03:57.167Z,27.70
2022-10-09T01:06:28.846Z,27.70
2022-10-09T01:09:01.867Z,27.70
2022-10-09T01:11:34.911Z,27.80
2022-10-09T01:14:06.821Z,27.80
2022-10-09T01:16:40.203Z,27.90
2022-10-09T01:19:13.387Z,27.90
2022-10-09T01:21:46.542Z,27.90
2022-10-09T01:24:19.620Z,27.90
2022-10-09T01:26:52.630Z,27.90
2022-10-09T01:29:25.529Z,28.00
2022-10-09T01:31:57.193Z,28.00
2022-10-09T01:34:29.167Z,28.00
2022-10-09T01:37:00.808Z,28.10
2022-10-09T01:39:33.610Z,28.10
2022-10-09T01:42:04.892Z,28.20
2022-10-09T01:44:36.320Z,28.20
2022-10-09T01:47:10.354Z,28.30
2022-10-09T01:49:42.303Z,28.30
2022-10-09T01:52:18.733Z,28.40
2022-10-09T01:54:50.391Z,28.40
2022-10-09T01:57:26.651Z,28.50
2022-10-09T01:59:59.728Z,28.60
2022-10-09T02:02:31.928Z,28.60
2022-10-09T02:05:03.488Z,28.60
2022-10-09T02:07:38.168Z,28.70
2022-10-09T02:10:10.208Z,28.80
2022-10-09T02:12:43.518Z,28.80
2022-10-09T02:15:14.927Z,28.90
2022-10-09T02:17:47.944Z,28.90
2022-10-09T02:20:21.079Z,29.00
2022-10-09T02:22:52.041Z,29.10
2022-10-09T02:25:23.059Z,29.10
2022-10-09T02:27:54.159Z,29.20
2022-10-09T02:30:26.233Z,29.30
2022-10-09T02:32:57.541Z,29.30
2022-10-09T02:35:28.250Z,29.40
2022-10-09T02:37:59.060Z,29.40
2022-10-09T02:40:29.625Z,29.50
2022-10-09T02:43:00.118Z,29.70
2022-10-09T02:45:30.738Z,29.80
2022-10-09T02:48:01.424Z,29.80
2022-10-09T02:50:32.043Z,29.90
2022-10-09T02:53:02.598Z,30.00
2022-10-09T02:55:33.120Z,30.10
2022-10-09T02:58:03.827Z,30.10
2022-10-09T03:00:34.788Z,30.20
2022-10-09T03:03:05.653Z,30.30
2022-10-09T03:05:36.276Z,30.50
2022-10-09T03:08:06.989Z,30.50
2022-10-09T03:10:40.293Z,30.60
2022-10-09T03:13:11.451Z,30.70
2022-10-09T03:15:42.550Z,30.70
2022-10-09T03:18:16.538Z,30.80
2022-10-09T03:20:47.225Z,30.90
2022-10-09T03:23:18.103Z,31.00
2022-10-09T03:25:49.854Z,31.10
2022-10-09T03:28:20.492Z,31.20
2022-10-09T03:30:51.170Z,31.30
2022-10-09T03:33:22.694Z,31.40
2022-10-09T03:35:53.758Z,31.40
2022-10-09T03:38:24.278Z,31.60
2022-10-09T03:40:55.330Z,31.60
2022-10-09T03:43:25.938Z,31.80
2022-10-09T03:46:00.360Z,31.80
2022-10-09T03:48:28.990Z,31.80
2022-10-09T03:51:00.145Z,31.90
2022-10-09T03:53:31.033Z,31.90
2022-10-09T03:56:01.530Z,32.00
2022-10-09T03:58:32.141Z,32.10
2022-10-09T04:01:02.925Z,32.20
2022-10-09T04:03:33.652Z,32.30
2022-10-09T04:06:04.232Z,32.30
2022-10-09T04:08:34.765Z,32.40
2022-10-09T04:11:05.495Z,32.50
2022-10-09T04:13:52.796Z,32.50
2022-10-09T04:16:23.856Z,32.50
2022-10-09T04:18:54.667Z,32.50
2022-10-09T04:21:25.717Z,32.60
2022-10-09T04:23:56.362Z,32.60
2022-10-09T04:26:27.022Z,32.60
2022-10-09T04:28:57.918Z,32.60
2022-10-09T04:31:28.572Z,32.60
2022-10-09T04:33:59.294Z,32.60
2022-10-09T04:36:29.961Z,32.70
2022-10-09T04:39:00.759Z,32.70
2022-10-09T04:41:34.738Z,32.70
2022-10-09T04:44:03.204Z,32.70
2022-10-09T04:46:33.984Z,32.60
2022-10-09T04:49:04.676Z,32.70
2022-10-09T04:51:35.288Z,32.70
2022-10-09T04:54:05.900Z,32.80
2022-10-09T04:56:36.811Z,32.90
2022-10-09T04:59:08.265Z,32.90
2022-10-09T05:01:38.940Z,32.90
2022-10-09T05:04:09.597Z,32.80
2022-10-09T05:06:40.200Z,32.80
2022-10-09T05:09:10.955Z,32.70
2022-10-09T05:11:44.789Z,32.60
2022-10-09T05:14:14.929Z,32.50
2022-10-09T05:17:11.740Z,32.50
2022-10-09T05:19:17.799Z,32.50
2022-10-09T05:21:48.419Z,32.50
2022-10-09T05:24:19.157Z,32.50
2022-10-09T05:26:49.763Z,32.50
2022-10-09T05:29:20.468Z,32.60
2022-10-09T05:31:51.186Z,32.70
2022-10-09T05:34:21.850Z,32.80
2022-10-09T05:36:52.464Z,32.80
2022-10-09T05:39:23.008Z,32.90
2022-10-09T05:41:53.758Z,32.80
2022-10-09T05:44:24.465Z,32.80
2022-10-09T05:46:54.992Z,32.80
2022-10-09T05:49:26.017Z,32.80
2022-10-09T05:51:57.164Z,32.80
2022-10-09T05:54:28.501Z,32.80
2022-10-09T05:56:59.070Z,32.80
2022-10-09T05:59:29.769Z,32.70
2022-10-09T06:02:00.545Z,32.70
2022-10-09T06:04:31.657Z,32.70
2022-10-09T06:07:02.219Z,32.70
2022-10-09T06:09:32.930Z,32.70
2022-10-09T06:12:03.447Z,32.60
2022-10-09T06:14:34.120Z,32.70
2022-10-09T06:17:04.843Z,32.60
2022-10-09T06:19:35.469Z,32.70
2022-10-09T06:22:06.455Z,32.70
2022-10-09T06:24:38.050Z,32.70
2022-10-09T06:27:08.657Z,32.70
2022-10-09T06:29:39.449Z,32.70
2022-10-09T06:32:09.954Z,32.60
2022-10-09T06:34:40.774Z,32.60
2022-10-09T06:37:11.414Z,32.60
2022-10-09T06:39:42.038Z,32.60
2022-10-09T06:42:12.755Z,32.60
2022-10-09T06:44:44.761Z,32.60
2022-10-09T06:47:15.365Z,32.60
2022-10-09T06:49:45.852Z,32.70
2022-10-09T06:52:16.654Z,32.70
2022-10-09T06:54:47.294Z,32.80
2022-10-09T06:57:18.018Z,32.80
2022-10-09T06:59:57.278Z,32.90
2022-10-09T07:02:45.942Z,32.90
2022-10-09T07:05:29.069Z,32.90
2022-10-09T07:08:09.669Z,32.70
2022-10-09T07:10:40.159Z,32.50
2022-10-09T07:13:10.787Z,32.30
2022-10-09T07:15:44.076Z,32.20
2022-10-09T07:18:17.223Z,32.10
2022-10-09T07:20:47.859Z,32.10
2022-10-09T07:23:18.790Z,32.00
2022-10-09T07:25:49.659Z,32.00
2022-10-09T07:28:20.214Z,32.00
2022-10-09T07:30:51.052Z,31.90
2022-10-09T07:33:22.234Z,31.80
2022-10-09T07:35:55.425Z,31.70
2022-10-09T07:38:26.940Z,31.60
2022-10-09T07:40:59.280Z,31.50
2022-10-09T07:43:29.891Z,31.40
2022-10-09T07:46:04.829Z,31.40
2022-10-09T07:48:37.258Z,31.40
2022-10-09T07:51:11.020Z,31.40
2022-10-09T07:53:41.858Z,31.40
2022-10-09T07:56:14.926Z,31.40
2022-10-09T07:58:46.326Z,31.50
2022-10-09T08:01:20.054Z,31.60
2022-10-09T08:03:50.056Z,31.70
2022-10-09T08:06:21.757Z,31.80
2022-10-09T08:08:54.450Z,31.90
2022-10-09T08:11:27.328Z,32.00
2022-10-09T08:13:58.043Z,32.10
2022-10-09T08:16:29.764Z,32.20
2022-10-09T08:19:02.582Z,32.20
2022-10-09T08:21:34.098Z,32.20
2022-10-09T08:24:05.090Z,32.20
2022-10-09T08:26:35.767Z,32.20
2022-10-09T08:29:09.316Z,32.20
2022-10-09T08:31:40.302Z,32.20
2022-10-09T08:34:12.560Z,32.20
2022-10-09T08:36:43.293Z,32.20
2022-10-09T08:39:14.246Z,32.20
2022-10-09T08:41:47.606Z,32.10
2022-10-09T08:44:20.645Z,32.10
2022-10-09T08:46:53.845Z,32.10
2022-10-09T08:49:27.348Z,32.10
2022-10-09T08:52:00.637Z,32.10
2022-10-09T08:54:33.737Z,32.10
2022-10-09T08:57:06.961Z,32.10
2022-10-09T08:59:38.140Z,32.20
2022-10-09T09:02:09.688Z,32.20
2022-10-09T09:04:42.910Z,32.20
2022-10-09T09:07:16.026Z,32.10
2022-10-09T09:09:49.160Z,32.20
2022-10-09T09:12:22.329Z,32.20
2022-10-09T09:14:53.849Z,32.20
2022-10-09T09:17:27.497Z,32.20
2022-10-09T09:20:00.770Z,32.10
2022-10-09T09:22:32.975Z,32.10
2022-10-09T09:25:06.016Z,32.10
2022-10-09T09:27:38.903Z,32.00
2022-10-09T09:30:12.152Z,32.00
2022-10-09T09:32:45.290Z,32.00
2022-10-09T09:35:16.748Z,32.00
2022-10-09T09:37:47.595Z,31.90
2022-10-09T09:40:38.134Z,31.90
2022-10-09T09:43:17.266Z,31.80
2022-10-09T09:45:58.379Z,31.80
2022-10-09T09:48:39.409Z,31.80
2022-10-09T09:51:29.434Z,31.70
2022-10-09T09:53:47.404Z,31.70
2022-10-09T09:56:53.215Z,31.60
2022-10-09T09:58:59.010Z,31.60
2022-10-09T10:01:34.119Z,31.50
2022-10-09T10:04:08.954Z,31.50
2022-10-09T10:06:41.987Z,31.50
2022-10-09T10:09:15.018Z,31.50
2022-10-09T10:11:52.324Z,31.40
2022-10-09T10:14:27.358Z,31.40
2022-10-09T10:17:02.622Z,31.40
2022-10-09T10:19:37.001Z,31.40
2022-10-09T10:22:09.804Z,31.30
2022-10-09T10:24:43.911Z,31.30
2022-10-09T10:27:15.565Z,31.30
2022-10-09T10:29:48.346Z,31.20
2022-10-09T10:32:21.371Z,31.20
2022-10-09T10:34:52.897Z,31.20
2022-10-09T10:37:22.815Z,31.10
2022-10-09T10:39:57.989Z,31.20
2022-10-09T10:42:31.042Z,31.10
2022-10-09T10:45:05.230Z,31.10
2022-10-09T10:47:41.121Z,31.00
2022-10-09T10:50:14.467Z,31.00
2022-10-09T10:52:47.645Z,31.00
2022-10-09T10:55:22.045Z,31.00
2022-10-09T10:57:55.093Z,31.00
2022-10-09T11:00:30.259Z,30.90
2022-10-09T11:03:04.351Z,30.90
2022-10-09T11:05:37.387Z,30.90
2022-10-09T11:08:10.613Z,30.90
2022-10-09T11:10:43.591Z,30.90
2022-10-09T11:13:13.626Z,30.80
2022-10-09T11:15:46.702Z,30.80
2022-10-09T11:18:18.272Z,30.80
2022-10-09T11:20:51.316Z,30.80
2022-10-09T11:23:24.836Z,30.70
2022-10-09T11:26:01.191Z,30.70
2022-10-09T11:28:34.419Z,30.70
2022-10-09T11:31:09.949Z,30.70
2022-10-09T11:33:43.061Z,30.60
2022-10-09T11:36:16.163Z,30.60
2022-10-09T11:38:49.218Z,30.60
2022-10-09T11:41:20.438Z,30.60
2022-10-09T11:43:53.714Z,30.50
2022-10-09T11:46:28.157Z,30.50
2022-10-09T11:49:08.835Z,30.50
2022-10-09T11:52:08.236Z,30.50
2022-10-09T12:00:17.909Z,30.40
2022-10-09T12:02:55.775Z,30.20
2022-10-09T12:08:25.859Z,30.00
2022-10-09T12:11:10.711Z,29.70
2022-10-09T12:19:34.402Z,29.40
2022-10-09T12:22:19.654Z,29.40
2022-10-09T12:27:59.920Z,29.30
2022-10-09T12:33:42.308Z,29.30
2022-10-09T12:44:54.326Z,29.40
2022-10-09T12:53:20.273Z,29.40
2022-10-09T13:01:54.703Z,29.40
2022-10-09T13:04:31.639Z,29.40
2022-10-09T13:07:25.595Z,29.30
2022-10-09T13:12:57.732Z,29.30
2022-10-09T13:18:28.167Z,29.20
2022-10-09T13:23:56.775Z,29.10
2022-10-09T13:26:32.963Z,29.10
2022-10-09T13:29:10.439Z,29.10
2022-10-09T13:31:45.677Z,29.00
2022-10-09T13:34:19.396Z,29.00
2022-10-09T13:36:53.153Z,29.00
2022-10-09T13:45:12.453Z,28.90
2022-10-09T13:47:47.906Z,28.90
2022-10-09T13:56:11.621Z,28.90
2022-10-09T13:58:52.813Z,28.90
2022-10-09T14:01:26.421Z,28.80
2022-10-09T14:03:59.221Z,28.80
2022-10-09T14:06:38.261Z,28.80
2022-10-09T14:09:13.154Z,28.80
2022-10-09T14:14:50.158Z,28.70
2022-10-09T14:17:30.332Z,28.70
2022-10-09T14:22:57.068Z,28.70
2022-10-09T14:28:22.242Z,28.80
2022-10-09T14:31:01.421Z,28.70
2022-10-09T14:33:34.230Z,28.70
2022-10-09T14:36:09.633Z,28.70
2022-10-09T14:38:45.183Z,28.70
2022-10-09T14:41:20.123Z,28.70
2022-10-09T14:43:54.598Z,28.70
2022-10-09T14:46:32.961Z,28.70
2022-10-09T14:49:05.156Z,28.70
2022-10-09T14:51:37.916Z,28.70
2022-10-09T14:54:11.218Z,28.70
2022-10-09T14:56:46.231Z,28.70
2022-10-09T14:59:19.731Z,28.70
2022-10-09T15:01:50.467Z,28.70
2022-10-09T15:04:20.982Z,28.70
2022-10-09T15:06:51.531Z,28.80
2022-10-09T15:09:22.054Z,28.80
2022-10-09T15:11:54.200Z,28.70
2022-10-09T15:14:25.081Z,28.70
2022-10-09T15:16:55.692Z,28.70
2022-10-09T15:19:28.522Z,28.70
2022-10-09T15:21:58.101Z,28.70
2022-10-09T15:24:31.306Z,28.70
2022-10-09T15:27:03.267Z,28.70
2022-10-09T15:29:33.823Z,28.70
2022-10-09T15:32:04.947Z,28.70
2022-10-09T15:34:38.812Z,28.70
2022-10-09T15:37:08.017Z,28.70
2022-10-09T15:39:44.960Z,28.70
2022-10-09T15:42:15.117Z,28.70
2022-10-09T15:44:45.981Z,28.60
2022-10-09T15:47:16.951Z,28.70
2022-10-09T15:49:53.192Z,28.60
2022-10-09T15:52:20.501Z,28.60
2022-10-09T15:54:51.157Z,28.60
2022-10-09T15:57:21.769Z,28.60
2022-10-09T15:59:52.277Z,28.60
2022-10-09T16:02:22.772Z,28.50
2022-10-09T16:04:53.526Z,28.50
2022-10-09T16:07:26.541Z,28.50
2022-10-09T16:09:58.320Z,28.50
2022-10-09T16:12:30.126Z,28.50
2022-10-09T16:15:01.161Z,28.40
2022-10-09T16:17:31.948Z,28.40
2022-10-09T16:20:02.457Z,28.40
2022-10-09T16:22:32.937Z,28.40
2022-10-09T16:25:03.758Z,28.40
2022-10-09T16:27:36.077Z,28.40
2022-10-09T16:30:08.465Z,28.30
2022-10-09T16:32:42.497Z,28.30
2022-10-09T16:35:13.100Z,28.30
2022-10-09T16:37:43.686Z,28.30
2022-10-09T16:40:14.925Z,28.20
2022-10-09T16:42:45.530Z,28.20
2022-10-09T16:45:16.086Z,28.20
2022-10-09T16:47:47.307Z,28.20
2022-10-09T16:50:18.486Z,28.20
2022-10-09T16:52:49.109Z,28.20
2022-10-09T16:55:20.015Z,28.20
2022-10-09T16:57:50.799Z,28.20
2022-10-09T17:00:22.996Z,28.20
2022-10-09T17:02:53.597Z,28.30
2022-10-09T17:05:25.633Z,28.30
2022-10-09T17:08:00.479Z,28.20
2022-10-09T17:10:31.158Z,28.20
2022-10-09T17:13:01.904Z,28.20
2022-10-09T17:15:32.466Z,28.20
2022-10-09T17:18:03.220Z,28.20
2022-10-09T17:20:33.947Z,28.20
2022-10-09T17:23:04.595Z,28.20
2022-10-09T17:25:37.349Z,28.10
2022-10-09T17:28:08.739Z,28.10
2022-10-09T17:30:41.777Z,28.10
2022-10-09T17:33:15.097Z,28.10
2022-10-09T17:35:44.691Z,28.10
2022-10-09T17:38:15.181Z,28.10
2022-10-09T17:40:45.771Z,28.10
2022-10-09T17:43:16.389Z,28.10
2022-10-09T17:45:48.004Z,28.10
2022-10-09T17:48:18.599Z,28.10
2022-10-09T17:50:51.961Z,28.00
2022-10-09T17:53:24.718Z,28.00
2022-10-09T17:55:58.334Z,28.00
2022-10-09T17:58:28.944Z,28.00
2022-10-09T18:00:59.716Z,28.00
2022-10-09T18:03:30.300Z,28.00
2022-10-09T18:06:02.443Z,28.00
2022-10-09T18:08:33.229Z,28.00
2022-10-09T18:11:09.426Z,28.00
2022-10-09T18:13:41.509Z,28.00
2022-10-09T18:16:14.930Z,28.00
2022-10-09T18:18:49.120Z,27.90
2022-10-09T18:21:22.668Z,27.90
2022-10-09T18:23:53.317Z,27.90
2022-10-09T18:26:24.660Z,27.90
2022-10-09T18:28:55.705Z,27.90
2022-10-09T18:31:26.544Z,27.90
2022-10-09T18:33:57.125Z,27.80
2022-10-09T18:36:31.184Z,27.90
2022-10-09T18:39:04.747Z,27.80
2022-10-09T18:41:35.626Z,27.80
2022-10-09T18:44:11.608Z,27.80
2022-10-09T18:46:44.970Z,27.80
2022-10-09T18:49:18.126Z,27.80
2022-10-09T18:51:50.015Z,27.80
2022-10-09T18:54:22.420Z,27.80
2022-10-09T18:56:53.770Z,27.80
2022-10-09T18:59:25.188Z,27.80
2022-10-09T19:01:55.817Z,27.80
2022-10-09T19:04:26.405Z,27.70
2022-10-09T19:06:58.128Z,27.70
2022-10-09T19:09:28.718Z,27.70
2022-10-09T19:11:59.276Z,27.70
2022-10-09T19:14:29.997Z,27.70
2022-10-09T19:17:00.577Z,27.70
2022-10-09T19:19:31.490Z,27.60
2022-10-09T19:22:02.314Z,27.60
2022-10-09T19:24:34.286Z,27.60
2022-10-09T19:27:05.733Z,27.60
2022-10-09T19:29:36.606Z,27.50
2022-10-09T19:32:07.696Z,27.60
2022-10-09T19:34:38.320Z,27.50
2022-10-09T19:37:08.910Z,27.50
2022-10-09T19:39:39.679Z,27.50
2022-10-09T19:42:10.139Z,27.50
2022-10-09T19:44:43.199Z,27.50
2022-10-09T19:47:15.710Z,27.50
2022-10-09T19:49:46.188Z,27.40
2022-10-09T19:52:16.710Z,27.40
2022-10-09T19:54:47.303Z,27.40
2022-10-09T19:57:17.817Z,27.40
2022-10-09T19:59:49.136Z,27.40
2022-10-09T20:02:19.821Z,27.40
2022-10-09T20:04:51.765Z,27.40
2022-10-09T20:07:23.298Z,27.40
2022-10-09T20:09:53.972Z,27.40
2022-10-09T20:12:24.884Z,27.40
2022-10-09T20:14:55.583Z,27.40
2022-10-09T20:17:26.140Z,27.40
2022-10-09T20:19:56.637Z,27.40
2022-10-09T20:22:27.310Z,27.40
2022-10-09T20:24:58.050Z,27.40
2022-10-09T20:27:28.715Z,27.40
2022-10-09T20:29:59.514Z,27.40
2022-10-09T20:32:31.426Z,27.40
2022-10-09T20:35:03.790Z,27.40
2022-10-09T20:37:36.091Z,27.40
2022-10-09T20:40:07.573Z,27.40
2022-10-09T20:42:38.469Z,27.40
2022-10-09T20:45:09.370Z,27.30
2022-10-09T20:47:40.010Z,27.40
2022-10-09T20:50:11.705Z,27.30
2022-10-09T20:52:42.311Z,27.30
2022-10-09T20:55:12.954Z,27.30
2022-10-09T20:57:43.457Z,27.30
2022-10-09T21:00:14.521Z,27.30
2022-10-09T21:02:45.161Z,27.30
2022-10-09T21:05:15.760Z,27.30
2022-10-09T21:07:47.014Z,27.30
2022-10-09T21:10:18.488Z,27.30
2022-10-09T21:12:49.556Z,27.30
2022-10-09T21:15:20.726Z,27.30
2022-10-09T21:17:51.239Z,27.30
2022-10-09T21:20:21.873Z,27.20
2022-10-09T21:22:52.795Z,27.30
2022-10-09T21:25:23.628Z,27.30
2022-10-09T21:27:54.380Z,27.30
2022-10-09T21:30:24.846Z,27.30
2022-10-09T21:32:55.439Z,27.30
2022-10-09T21:35:26.680Z,27.30
2022-10-09T21:37:57.290Z,27.30
2022-10-09T21:40:27.799Z,27.30
2022-10-09T21:42:58.473Z,27.30
2022-10-09T21:45:29.419Z,27.30
2022-10-09T21:48:00.158Z,27.30
2022-10-09T21:50:30.941Z,27.30
2022-10-09T21:53:02.293Z,27.20
2022-10-09T21:55:32.908Z,27.20
2022-10-09T21:58:03.636Z,27.20
2022-10-09T22:00:34.891Z,27.20
2022-10-09T22:03:06.105Z,27.20
2022-10-09T22:05:36.734Z,27.20
2022-10-09T22:08:07.357Z,27.10
2022-10-09T22:10:38.029Z,27.20
2022-10-09T22:13:08.574Z,27.10
2022-10-09T22:15:41.603Z,27.20
2022-10-09T22:18:13.471Z,27.20
2022-10-09T22:20:45.734Z,27.10
2022-10-09T22:23:17.429Z,27.10
2022-10-09T22:25:49.397Z,27.10
2022-10-09T22:28:20.328Z,27.20
2022-10-09T22:30:51.105Z,27.20
2022-10-09T22:33:21.787Z,27.20
2022-10-09T22:35:52.415Z,27.20
2022-10-09T22:38:22.909Z,27.10
2022-10-09T22:40:53.495Z,27.10
2022-10-09T22:43:24.117Z,27.10
2022-10-09T22:45:54.789Z,27.10
2022-10-09T22:48:25.390Z,27.10
2022-10-09T22:50:55.915Z,27.00
2022-10-09T22:53:26.632Z,27.00
2022-10-09T22:55:57.336Z,27.00
2022-10-09T22:58:28.135Z,27.10
2022-10-09T23:00:58.848Z,27.10
2022-10-09T23:03:29.569Z,27.10
2022-10-09T23:06:02.603Z,27.10
2022-10-09T23:08:33.270Z,27.10
2022-10-09T23:11:03.960Z,27.10
2022-10-09T23:13:34.938Z,27.10
2022-10-09T23:16:07.926Z,27.10
2022-10-09T23:18:39.658Z,27.20
2022-10-09T23:21:12.811Z,27.10
2022-10-09T23:23:44.496Z,27.20
2022-10-09T23:26:17.645Z,27.10
2022-10-09T23:28:50.680Z,27.10
2022-10-09T23:31:21.965Z,27.20
2022-10-09T23:33:52.671Z,27.20
2022-10-09T23:36:26.027Z,27.20
2022-10-09T23:38:57.535Z,27.20
2022-10-09T23:41:30.853Z,27.10
2022-10-09T23:44:01.487Z,27.10
2022-10-09T23:46:35.122Z,27.10
2022-10-09T23:49:06.103Z,27.10
2022-10-09T23:51:36.578Z,27.10
2022-10-09T23:54:08.292Z,27.10
2022-10-09T23:56:39.434Z,27.10
2022-10-09T23:59:10.088Z,27.20
